Capitol Logistics 1172


EETN
Tallinn Airport
Tallinn, EE
EBLG
Liège Airport
Liege, BE

Route Details

Aircraft Information
Primary: Boeing 767-300BDSF
Backup: Not Available
Route Data
Distance: 856nm
Sched. Duration: 2h 00m
Avg. Duration: 2h 67m (+68m)
Times Flown: 5
Recm'd Route: TLL Q11 PIMEX P739 KOLJA M864 BUMIL OSB
Planned Altitude: 36,000ft
Origin Wx: EETN 271620Z 08012KT CAVOK M02/M07 Q0995 R08/920195 NOSIG
Dest. Wx: EBLG 271620Z 32009KT 290V350 1200 R22L/1700U R22R/1900N R04R/1500N -SN SCT002 OVC003 M00/M01 Q0997 TEMPO 0800 SN
Notes:

Financial History
Total Freight: 472,171lbs
Average Load: 94,434lbs/flt
Fuel Used: 150,082lbs
Avg. Fuel Used: 30,016lbs/flt
Fuel Expense: $120,066
Avg. Fuel Expense: $24,013
Avg. Fuel Cost: $0.80/lbs
Total Gross Income: $673,464
Pilot Pay: $915
Total Expenses: $67,111
Total Revenue: $482,923
Average Revenue: $134,692.76